sensor_id;sensor_type;location;lat;lon;timestamp;P1;durP1;ratioP1;P2;durP2;ratioP2
75152;SDS011;63734;45.218;36.708;2023-04-15T00:01:27;28.20;;;16.00;;
75152;SDS011;63734;45.218;36.708;2023-04-15T00:03:53;27.80;;;15.43;;
75152;SDS011;63734;45.218;36.708;2023-04-15T00:06:20;22.98;;;13.77;;
75152;SDS011;63734;45.218;36.708;2023-04-15T00:08:47;21.45;;;13.23;;
75152;SDS011;63734;45.218;36.708;2023-04-15T00:11:13;25.55;;;14.57;;
75152;SDS011;63734;45.218;36.708;2023-04-15T00:13:39;25.10;;;13.70;;
75152;SDS011;63734;45.218;36.708;2023-04-15T00:16:06;25.05;;;13.23;;
75152;SDS011;63734;45.218;36.708;2023-04-15T00:18:33;22.83;;;14.15;;
75152;SDS011;63734;45.218;36.708;2023-04-15T00:21:00;26.17;;;14.15;;
75152;SDS011;63734;45.218;36.708;2023-04-15T00:23:26;24.40;;;14.60;;
75152;SDS011;63734;45.218;36.708;2023-04-15T00:25:52;25.02;;;13.63;;
75152;SDS011;63734;45.218;36.708;2023-04-15T00:28:18;22.95;;;13.48;;
75152;SDS011;63734;45.218;36.708;2023-04-15T00:30:44;26.20;;;14.75;;
75152;SDS011;63734;45.218;36.708;2023-04-15T00:33:11;24.42;;;14.43;;
75152;SDS011;63734;45.218;36.708;2023-04-15T00:35:38;22.75;;;13.50;;
75152;SDS011;63734;45.218;36.708;2023-04-15T00:38:04;22.15;;;13.25;;
75152;SDS011;63734;45.218;36.708;2023-04-15T00:40:34;24.05;;;14.55;;
75152;SDS011;63734;45.218;36.708;2023-04-15T00:43:00;22.35;;;13.25;;
75152;SDS011;63734;45.218;36.708;2023-04-15T00:45:27;25.38;;;13.57;;
75152;SDS011;63734;45.218;36.708;2023-04-15T00:47:53;25.48;;;14.40;;
75152;SDS011;63734;45.218;36.708;2023-04-15T00:50:20;25.10;;;14.88;;
75152;SDS011;63734;45.218;36.708;2023-04-15T00:52:47;14.23;;;8.35;;
75152;SDS011;63734;45.218;36.708;2023-04-15T00:55:13;27.13;;;15.85;;
75152;SDS011;63734;45.218;36.708;2023-04-15T00:57:40;28.40;;;15.95;;
75152;SDS011;63734;45.218;36.708;2023-04-15T01:00:07;29.17;;;16.77;;
75152;SDS011;63734;45.218;36.708;2023-04-15T01:02:34;30.40;;;18.58;;
75152;SDS011;63734;45.218;36.708;2023-04-15T01:05:01;30.13;;;17.48;;
75152;SDS011;63734;45.218;36.708;2023-04-15T01:07:28;31.23;;;17.27;;
75152;SDS011;63734;45.218;36.708;2023-04-15T01:09:55;29.92;;;17.67;;
75152;SDS011;63734;45.218;36.708;2023-04-15T01:12:21;29.95;;;17.73;;
75152;SDS011;63734;45.218;36.708;2023-04-15T01:14:48;28.33;;;16.40;;
75152;SDS011;63734;45.218;36.708;2023-04-15T01:17:14;38.83;;;19.38;;
75152;SDS011;63734;45.218;36.708;2023-04-15T01:19:40;41.60;;;20.75;;
75152;SDS011;63734;45.218;36.708;2023-04-15T01:22:06;33.08;;;18.13;;
75152;SDS011;63734;45.218;36.708;2023-04-15T01:24:32;38.72;;;19.25;;
75152;SDS011;63734;45.218;36.708;2023-04-15T01:26:59;32.85;;;18.88;;
75152;SDS011;63734;45.218;36.708;2023-04-15T01:29:26;31.75;;;19.45;;
75152;SDS011;63734;45.218;36.708;2023-04-15T01:31:52;34.40;;;19.38;;
75152;SDS011;63734;45.218;36.708;2023-04-15T01:34:20;32.55;;;19.10;;
75152;SDS011;63734;45.218;36.708;2023-04-15T01:36:46;33.20;;;18.75;;
75152;SDS011;63734;45.218;36.708;2023-04-15T01:39:13;30.33;;;16.92;;
75152;SDS011;63734;45.218;36.708;2023-04-15T01:41:39;28.92;;;18.15;;
75152;SDS011;63734;45.218;36.708;2023-04-15T01:44:06;33.25;;;18.92;;
75152;SDS011;63734;45.218;36.708;2023-04-15T01:46:33;29.55;;;17.80;;
75152;SDS011;63734;45.218;36.708;2023-04-15T01:49:00;31.85;;;18.60;;
75152;SDS011;63734;45.218;36.708;2023-04-15T01:51:26;26.73;;;16.63;;
75152;SDS011;63734;45.218;36.708;2023-04-15T01:53:52;32.13;;;18.25;;
75152;SDS011;63734;45.218;36.708;2023-04-15T01:56:22;34.47;;;19.50;;
75152;SDS011;63734;45.218;36.708;2023-04-15T01:58:51;27.67;;;17.33;;
75152;SDS011;63734;45.218;36.708;2023-04-15T02:01:17;24.98;;;13.00;;
75152;SDS011;63734;45.218;36.708;2023-04-15T02:03:46;30.92;;;18.50;;
75152;SDS011;63734;45.218;36.708;2023-04-15T02:06:13;33.03;;;19.38;;
75152;SDS011;63734;45.218;36.708;2023-04-15T02:08:39;32.63;;;17.15;;
75152;SDS011;63734;45.218;36.708;2023-04-15T02:11:06;30.70;;;16.20;;
75152;SDS011;63734;45.218;36.708;2023-04-15T02:13:32;29.90;;;15.85;;
75152;SDS011;63734;45.218;36.708;2023-04-15T02:15:58;33.55;;;18.38;;
75152;SDS011;63734;45.218;36.708;2023-04-15T02:18:24;36.65;;;20.30;;
75152;SDS011;63734;45.218;36.708;2023-04-15T02:20:51;36.15;;;19.83;;
75152;SDS011;63734;45.218;36.708;2023-04-15T02:23:17;32.70;;;17.58;;
75152;SDS011;63734;45.218;36.708;2023-04-15T02:25:42;37.80;;;19.95;;
75152;SDS011;63734;45.218;36.708;2023-04-15T02:28:08;36.97;;;20.40;;
75152;SDS011;63734;45.218;36.708;2023-04-15T02:30:35;38.03;;;20.48;;
75152;SDS011;63734;45.218;36.708;2023-04-15T02:33:02;43.38;;;19.70;;
75152;SDS011;63734;45.218;36.708;2023-04-15T02:35:28;37.85;;;19.90;;
75152;SDS011;63734;45.218;36.708;2023-04-15T02:37:54;41.10;;;19.75;;
75152;SDS011;63734;45.218;36.708;2023-04-15T02:40:20;39.72;;;19.70;;
75152;SDS011;63734;45.218;36.708;2023-04-15T02:42:47;39.30;;;18.73;;
75152;SDS011;63734;45.218;36.708;2023-04-15T02:45:15;37.08;;;18.70;;
75152;SDS011;63734;45.218;36.708;2023-04-15T02:47:43;35.92;;;18.20;;
75152;SDS011;63734;45.218;36.708;2023-04-15T02:50:10;29.40;;;15.85;;
75152;SDS011;63734;45.218;36.708;2023-04-15T02:52:39;32.33;;;17.52;;
75152;SDS011;63734;45.218;36.708;2023-04-15T02:55:06;37.42;;;17.70;;
75152;SDS011;63734;45.218;36.708;2023-04-15T02:57:34;34.30;;;16.30;;
75152;SDS011;63734;45.218;36.708;2023-04-15T03:00:05;31.17;;;15.43;;
75152;SDS011;63734;45.218;36.708;2023-04-15T03:02:36;63.45;;;15.10;;
75152;SDS011;63734;45.218;36.708;2023-04-15T03:05:03;50.08;;;15.57;;
75152;SDS011;63734;45.218;36.708;2023-04-15T03:07:31;40.63;;;14.52;;
75152;SDS011;63734;45.218;36.708;2023-04-15T03:09:58;120.57;;;17.20;;
75152;SDS011;63734;45.218;36.708;2023-04-15T03:12:24;48.83;;;13.18;;
75152;SDS011;63734;45.218;36.708;2023-04-15T03:14:54;50.47;;;13.88;;
75152;SDS011;63734;45.218;36.708;2023-04-15T03:17:25;83.78;;;14.88;;
75152;SDS011;63734;45.218;36.708;2023-04-15T03:19:51;55.78;;;13.70;;
75152;SDS011;63734;45.218;36.708;2023-04-15T03:22:17;27.52;;;12.27;;
75152;SDS011;63734;45.218;36.708;2023-04-15T03:24:43;35.83;;;13.02;;
75152;SDS011;63734;45.218;36.708;2023-04-15T03:27:09;21.45;;;9.63;;
75152;SDS011;63734;45.218;36.708;2023-04-15T03:29:35;24.15;;;10.27;;
75152;SDS011;63734;45.218;36.708;2023-04-15T03:32:01;26.33;;;13.57;;
75152;SDS011;63734;45.218;36.708;2023-04-15T03:34:32;22.98;;;12.07;;
75152;SDS011;63734;45.218;36.708;2023-04-15T03:36:58;22.63;;;13.18;;
75152;SDS011;63734;45.218;36.708;2023-04-15T03:39:24;24.40;;;13.75;;
75152;SDS011;63734;45.218;36.708;2023-04-15T03:41:49;26.25;;;14.10;;
75152;SDS011;63734;45.218;36.708;2023-04-15T03:44:15;29.45;;;13.80;;
75152;SDS011;63734;45.218;36.708;2023-04-15T03:46:41;26.80;;;13.70;;
75152;SDS011;63734;45.218;36.708;2023-04-15T03:49:07;20.35;;;12.98;;
75152;SDS011;63734;45.218;36.708;2023-04-15T03:51:33;18.90;;;12.40;;
75152;SDS011;63734;45.218;36.708;2023-04-15T03:53:59;20.42;;;11.68;;
75152;SDS011;63734;45.218;36.708;2023-04-15T03:56:26;20.05;;;11.48;;
75152;SDS011;63734;45.218;36.708;2023-04-15T03:58:52;16.98;;;10.80;;
75152;SDS011;63734;45.218;36.708;2023-04-15T04:01:18;15.52;;;9.60;;
75152;SDS011;63734;45.218;36.708;2023-04-15T04:03:44;17.42;;;9.07;;
75152;SDS011;63734;45.218;36.708;2023-04-15T04:06:10;13.18;;;8.52;;
75152;SDS011;63734;45.218;36.708;2023-04-15T04:08:36;16.13;;;8.63;;
75152;SDS011;63734;45.218;36.708;2023-04-15T04:11:03;11.55;;;7.82;;
75152;SDS011;63734;45.218;36.708;2023-04-15T04:13:29;12.88;;;9.13;;
75152;SDS011;63734;45.218;36.708;2023-04-15T04:15:55;11.40;;;7.35;;
75152;SDS011;63734;45.218;36.708;2023-04-15T04:18:21;10.23;;;7.53;;
75152;SDS011;63734;45.218;36.708;2023-04-15T04:20:47;12.73;;;7.90;;
75152;SDS011;63734;45.218;36.708;2023-04-15T04:23:13;12.30;;;7.40;;
75152;SDS011;63734;45.218;36.708;2023-04-15T04:25:39;11.43;;;7.57;;
75152;SDS011;63734;45.218;36.708;2023-04-15T04:28:05;12.10;;;7.47;;
75152;SDS011;63734;45.218;36.708;2023-04-15T04:30:30;12.55;;;6.47;;
75152;SDS011;63734;45.218;36.708;2023-04-15T04:32:56;10.15;;;7.25;;
75152;SDS011;63734;45.218;36.708;2023-04-15T04:35:22;11.63;;;6.70;;
75152;SDS011;63734;45.218;36.708;2023-04-15T04:37:48;11.10;;;6.97;;
75152;SDS011;63734;45.218;36.708;2023-04-15T04:40:15;10.90;;;8.77;;
75152;SDS011;63734;45.218;36.708;2023-04-15T04:42:41;13.80;;;8.68;;
75152;SDS011;63734;45.218;36.708;2023-04-15T04:45:07;13.32;;;6.82;;
75152;SDS011;63734;45.218;36.708;2023-04-15T04:47:33;9.65;;;6.72;;
75152;SDS011;63734;45.218;36.708;2023-04-15T04:49:59;11.73;;;5.15;;
75152;SDS011;63734;45.218;36.708;2023-04-15T04:52:25;6.80;;;4.80;;
75152;SDS011;63734;45.218;36.708;2023-04-15T04:54:51;13.52;;;3.85;;
75152;SDS011;63734;45.218;36.708;2023-04-15T04:57:16;6.63;;;3.85;;
75152;SDS011;63734;45.218;36.708;2023-04-15T04:59:42;7.95;;;5.00;;
75152;SDS011;63734;45.218;36.708;2023-04-15T05:02:08;6.00;;;4.28;;
75152;SDS011;63734;45.218;36.708;2023-04-15T05:04:34;4.40;;;3.50;;
75152;SDS011;63734;45.218;36.708;2023-04-15T05:07:01;7.78;;;5.55;;
75152;SDS011;63734;45.218;36.708;2023-04-15T05:09:27;8.13;;;4.95;;
75152;SDS011;63734;45.218;36.708;2023-04-15T05:11:54;5.53;;;3.78;;
75152;SDS011;63734;45.218;36.708;2023-04-15T05:14:20;9.02;;;5.30;;
75152;SDS011;63734;45.218;36.708;2023-04-15T05:16:46;5.70;;;4.03;;
75152;SDS011;63734;45.218;36.708;2023-04-15T05:19:12;6.32;;;3.40;;
75152;SDS011;63734;45.218;36.708;2023-04-15T05:21:38;6.35;;;4.22;;
75152;SDS011;63734;45.218;36.708;2023-04-15T05:24:04;5.47;;;4.45;;
75152;SDS011;63734;45.218;36.708;2023-04-15T05:26:30;8.82;;;4.50;;
75152;SDS011;63734;45.218;36.708;2023-04-15T05:28:56;6.20;;;3.35;;
75152;SDS011;63734;45.218;36.708;2023-04-15T05:31:22;4.72;;;3.42;;
75152;SDS011;63734;45.218;36.708;2023-04-15T05:33:48;5.13;;;3.80;;
75152;SDS011;63734;45.218;36.708;2023-04-15T05:36:14;6.82;;;4.05;;
75152;SDS011;63734;45.218;36.708;2023-04-15T05:38:40;6.95;;;3.63;;
75152;SDS011;63734;45.218;36.708;2023-04-15T05:41:06;7.78;;;3.55;;
75152;SDS011;63734;45.218;36.708;2023-04-15T05:43:33;5.60;;;4.28;;
75152;SDS011;63734;45.218;36.708;2023-04-15T05:45:59;7.80;;;2.67;;
75152;SDS011;63734;45.218;36.708;2023-04-15T05:48:25;4.93;;;3.05;;
75152;SDS011;63734;45.218;36.708;2023-04-15T05:50:51;9.13;;;4.65;;
75152;SDS011;63734;45.218;36.708;2023-04-15T05:53:17;10.32;;;4.20;;
75152;SDS011;63734;45.218;36.708;2023-04-15T05:55:43;5.28;;;3.65;;
75152;SDS011;63734;45.218;36.708;2023-04-15T05:58:09;4.40;;;3.33;;
75152;SDS011;63734;45.218;36.708;2023-04-15T06:00:35;6.53;;;3.63;;
75152;SDS011;63734;45.218;36.708;2023-04-15T06:03:01;8.80;;;3.47;;
75152;SDS011;63734;45.218;36.708;2023-04-15T06:05:27;8.80;;;3.47;;
75152;SDS011;63734;45.218;36.708;2023-04-15T06:07:53;5.80;;;3.53;;
75152;SDS011;63734;45.218;36.708;2023-04-15T06:10:19;5.30;;;3.00;;
75152;SDS011;63734;45.218;36.708;2023-04-15T06:12:45;5.25;;;3.20;;
75152;SDS011;63734;45.218;36.708;2023-04-15T06:15:11;9.70;;;3.63;;
75152;SDS011;63734;45.218;36.708;2023-04-15T06:17:37;8.77;;;4.03;;
75152;SDS011;63734;45.218;36.708;2023-04-15T06:20:03;5.68;;;3.20;;
75152;SDS011;63734;45.218;36.708;2023-04-15T06:22:29;6.10;;;3.58;;
75152;SDS011;63734;45.218;36.708;2023-04-15T06:24:55;7.70;;;2.97;;
75152;SDS011;63734;45.218;36.708;2023-04-15T06:27:21;11.02;;;4.07;;
75152;SDS011;63734;45.218;36.708;2023-04-15T06:29:47;5.22;;;2.63;;
75152;SDS011;63734;45.218;36.708;2023-04-15T06:32:13;5.18;;;2.78;;
75152;SDS011;63734;45.218;36.708;2023-04-15T06:34:39;5.13;;;3.22;;
75152;SDS011;63734;45.218;36.708;2023-04-15T06:37:05;4.18;;;2.60;;
75152;SDS011;63734;45.218;36.708;2023-04-15T06:39:30;8.40;;;4.55;;
75152;SDS011;63734;45.218;36.708;2023-04-15T06:41:56;7.10;;;3.30;;
75152;SDS011;63734;45.218;36.708;2023-04-15T06:44:22;4.80;;;3.17;;
75152;SDS011;63734;45.218;36.708;2023-04-15T06:46:48;5.03;;;3.25;;
75152;SDS011;63734;45.218;36.708;2023-04-15T06:49:14;8.07;;;3.67;;
75152;SDS011;63734;45.218;36.708;2023-04-15T06:51:41;6.05;;;3.22;;
75152;SDS011;63734;45.218;36.708;2023-04-15T06:54:07;7.22;;;2.92;;
75152;SDS011;63734;45.218;36.708;2023-04-15T06:56:33;7.43;;;3.10;;
75152;SDS011;63734;45.218;36.708;2023-04-15T06:58:59;7.20;;;3.15;;
75152;SDS011;63734;45.218;36.708;2023-04-15T07:01:25;4.30;;;3.20;;
75152;SDS011;63734;45.218;36.708;2023-04-15T07:03:51;7.07;;;3.15;;
75152;SDS011;63734;45.218;36.708;2023-04-15T07:06:17;5.55;;;3.10;;
75152;SDS011;63734;45.218;36.708;2023-04-15T07:08:44;7.78;;;3.40;;
75152;SDS011;63734;45.218;36.708;2023-04-15T07:11:10;6.40;;;3.00;;
75152;SDS011;63734;45.218;36.708;2023-04-15T07:13:36;5.53;;;3.15;;
75152;SDS011;63734;45.218;36.708;2023-04-15T07:16:02;5.88;;;3.28;;
75152;SDS011;63734;45.218;36.708;2023-04-15T07:18:28;6.40;;;2.95;;
75152;SDS011;63734;45.218;36.708;2023-04-15T07:20:54;7.10;;;2.53;;
75152;SDS011;63734;45.218;36.708;2023-04-15T07:23:20;5.65;;;3.05;;
75152;SDS011;63734;45.218;36.708;2023-04-15T07:25:46;8.60;;;3.92;;
75152;SDS011;63734;45.218;36.708;2023-04-15T07:28:13;5.53;;;3.13;;
75152;SDS011;63734;45.218;36.708;2023-04-15T07:30:39;4.95;;;2.70;;
75152;SDS011;63734;45.218;36.708;2023-04-15T07:33:04;6.53;;;2.60;;
75152;SDS011;63734;45.218;36.708;2023-04-15T07:35:31;5.25;;;2.60;;
75152;SDS011;63734;45.218;36.708;2023-04-15T07:37:57;5.85;;;3.30;;
75152;SDS011;63734;45.218;36.708;2023-04-15T07:40:23;5.07;;;2.90;;
75152;SDS011;63734;45.218;36.708;2023-04-15T07:42:49;11.63;;;10.52;;
75152;SDS011;63734;45.218;36.708;2023-04-15T07:45:15;70.38;;;48.95;;
75152;SDS011;63734;45.218;36.708;2023-04-15T07:47:41;4.90;;;2.60;;
75152;SDS011;63734;45.218;36.708;2023-04-15T07:50:08;105.68;;;39.78;;
75152;SDS011;63734;45.218;36.708;2023-04-15T07:52:37;23.13;;;20.70;;
75152;SDS011;63734;45.218;36.708;2023-04-15T07:55:04;6.35;;;3.53;;
75152;SDS011;63734;45.218;36.708;2023-04-15T07:57:35;6.00;;;3.03;;
75152;SDS011;63734;45.218;36.708;2023-04-15T08:00:02;4.70;;;2.40;;
75152;SDS011;63734;45.218;36.708;2023-04-15T08:02:38;4.88;;;2.42;;
75152;SDS011;63734;45.218;36.708;2023-04-15T08:05:04;4.30;;;3.50;;
75152;SDS011;63734;45.218;36.708;2023-04-15T08:07:31;5.00;;;2.92;;
75152;SDS011;63734;45.218;36.708;2023-04-15T08:09:57;3.70;;;2.60;;
75152;SDS011;63734;45.218;36.708;2023-04-15T08:12:23;6.30;;;2.45;;
75152;SDS011;63734;45.218;36.708;2023-04-15T08:14:50;4.13;;;2.45;;
75152;SDS011;63734;45.218;36.708;2023-04-15T08:17:16;3.38;;;2.20;;
75152;SDS011;63734;45.218;36.708;2023-04-15T08:19:42;4.75;;;3.15;;
75152;SDS011;63734;45.218;36.708;2023-04-15T08:22:09;4.65;;;2.70;;
75152;SDS011;63734;45.218;36.708;2023-04-15T08:24:36;5.15;;;2.40;;
75152;SDS011;63734;45.218;36.708;2023-04-15T08:27:02;2.60;;;2.05;;
75152;SDS011;63734;45.218;36.708;2023-04-15T08:29:30;4.80;;;2.92;;
75152;SDS011;63734;45.218;36.708;2023-04-15T08:31:58;5.72;;;2.35;;
75152;SDS011;63734;45.218;36.708;2023-04-15T08:34:24;4.82;;;2.45;;
75152;SDS011;63734;45.218;36.708;2023-04-15T08:36:50;3.17;;;1.77;;
75152;SDS011;63734;45.218;36.708;2023-04-15T08:39:16;3.67;;;2.33;;
75152;SDS011;63734;45.218;36.708;2023-04-15T08:41:46;3.70;;;2.05;;
75152;SDS011;63734;45.218;36.708;2023-04-15T08:44:31;5.22;;;2.65;;
75152;SDS011;63734;45.218;36.708;2023-04-15T08:47:01;4.80;;;2.17;;
75152;SDS011;63734;45.218;36.708;2023-04-15T08:49:28;3.63;;;2.30;;
75152;SDS011;63734;45.218;36.708;2023-04-15T08:51:56;2.85;;;2.33;;
75152;SDS011;63734;45.218;36.708;2023-04-15T08:54:23;5.80;;;2.40;;
75152;SDS011;63734;45.218;36.708;2023-04-15T08:56:50;3.13;;;1.95;;
75152;SDS011;63734;45.218;36.708;2023-04-15T08:59:17;4.18;;;2.90;;
75152;SDS011;63734;45.218;36.708;2023-04-15T09:01:43;2.90;;;2.03;;
75152;SDS011;63734;45.218;36.708;2023-04-15T09:04:10;3.42;;;2.08;;
75152;SDS011;63734;45.218;36.708;2023-04-15T09:06:36;3.40;;;2.13;;
75152;SDS011;63734;45.218;36.708;2023-04-15T09:09:05;3.63;;;2.47;;
75152;SDS011;63734;45.218;36.708;2023-04-15T09:11:31;2.88;;;2.47;;
75152;SDS011;63734;45.218;36.708;2023-04-15T09:13:57;3.13;;;2.80;;
75152;SDS011;63734;45.218;36.708;2023-04-15T09:16:23;4.65;;;2.60;;
75152;SDS011;63734;45.218;36.708;2023-04-15T09:18:49;3.40;;;1.98;;
75152;SDS011;63734;45.218;36.708;2023-04-15T09:21:15;2.53;;;2.00;;
75152;SDS011;63734;45.218;36.708;2023-04-15T09:26:34;3.72;;;2.75;;
75152;SDS011;63734;45.218;36.708;2023-04-15T09:29:05;6.05;;;2.30;;
75152;SDS011;63734;45.218;36.708;2023-04-15T09:31:38;2.45;;;1.70;;
75152;SDS011;63734;45.218;36.708;2023-04-15T09:34:05;3.95;;;2.10;;
75152;SDS011;63734;45.218;36.708;2023-04-15T09:36:51;3.35;;;2.60;;
75152;SDS011;63734;45.218;36.708;2023-04-15T09:39:17;5.13;;;2.22;;
75152;SDS011;63734;45.218;36.708;2023-04-15T09:41:43;3.08;;;2.30;;
75152;SDS011;63734;45.218;36.708;2023-04-15T09:44:25;2.90;;;2.10;;
75152;SDS011;63734;45.218;36.708;2023-04-15T09:46:51;2.70;;;2.22;;
75152;SDS011;63734;45.218;36.708;2023-04-15T09:49:17;6.60;;;2.10;;
75152;SDS011;63734;45.218;36.708;2023-04-15T09:51:45;3.88;;;2.40;;
75152;SDS011;63734;45.218;36.708;2023-04-15T09:54:11;4.75;;;2.20;;
75152;SDS011;63734;45.218;36.708;2023-04-15T09:56:38;2.42;;;2.10;;
75152;SDS011;63734;45.218;36.708;2023-04-15T09:59:07;4.88;;;2.67;;
75152;SDS011;63734;45.218;36.708;2023-04-15T10:01:33;3.13;;;2.15;;
75152;SDS011;63734;45.218;36.708;2023-04-15T10:04:04;3.75;;;1.95;;
75152;SDS011;63734;45.218;36.708;2023-04-15T10:06:30;2.03;;;1.75;;
75152;SDS011;63734;45.218;36.708;2023-04-15T10:08:58;2.92;;;2.10;;
75152;SDS011;63734;45.218;36.708;2023-04-15T10:11:25;2.90;;;2.10;;
75152;SDS011;63734;45.218;36.708;2023-04-15T10:13:53;4.95;;;2.70;;
75152;SDS011;63734;45.218;36.708;2023-04-15T10:16:22;4.00;;;2.58;;
75152;SDS011;63734;45.218;36.708;2023-04-15T10:18:55;4.47;;;1.80;;
75152;SDS011;63734;45.218;36.708;2023-04-15T10:21:23;2.75;;;2.00;;
75152;SDS011;63734;45.218;36.708;2023-04-15T10:23:49;3.25;;;2.17;;
75152;SDS011;63734;45.218;36.708;2023-04-15T10:26:16;5.18;;;2.55;;
75152;SDS011;63734;45.218;36.708;2023-04-15T10:28:42;3.65;;;2.60;;
75152;SDS011;63734;45.218;36.708;2023-04-15T10:31:12;27.27;;;11.00;;
75152;SDS011;63734;45.218;36.708;2023-04-15T10:33:41;8.18;;;4.10;;
75152;SDS011;63734;45.218;36.708;2023-04-15T10:36:08;7.63;;;3.95;;
75152;SDS011;63734;45.218;36.708;2023-04-15T10:38:42;7.82;;;4.05;;
75152;SDS011;63734;45.218;36.708;2023-04-15T10:43:49;8.63;;;4.30;;
75152;SDS011;63734;45.218;36.708;2023-04-15T10:46:21;4.80;;;3.72;;
75152;SDS011;63734;45.218;36.708;2023-04-15T10:49:07;6.20;;;3.92;;
75152;SDS011;63734;45.218;36.708;2023-04-15T10:59:37;6.63;;;4.03;;
75152;SDS011;63734;45.218;36.708;2023-04-15T11:02:39;8.27;;;4.00;;
75152;SDS011;63734;45.218;36.708;2023-04-15T11:05:05;5.85;;;3.65;;
75152;SDS011;63734;45.218;36.708;2023-04-15T11:07:35;6.85;;;3.92;;
75152;SDS011;63734;45.218;36.708;2023-04-15T11:12:59;11.02;;;6.50;;
75152;SDS011;63734;45.218;36.708;2023-04-15T11:15:48;15.13;;;7.72;;
75152;SDS011;63734;45.218;36.708;2023-04-15T11:20:43;8.48;;;4.13;;
75152;SDS011;63734;45.218;36.708;2023-04-15T11:23:10;7.20;;;4.35;;
75152;SDS011;63734;45.218;36.708;2023-04-15T11:25:36;6.30;;;3.67;;
75152;SDS011;63734;45.218;36.708;2023-04-15T11:28:02;6.97;;;4.60;;
75152;SDS011;63734;45.218;36.708;2023-04-15T11:30:30;6.72;;;4.80;;
75152;SDS011;63734;45.218;36.708;2023-04-15T11:33:04;4.72;;;3.38;;
75152;SDS011;63734;45.218;36.708;2023-04-15T11:35:32;5.78;;;4.25;;
75152;SDS011;63734;45.218;36.708;2023-04-15T11:38:05;5.68;;;3.90;;
75152;SDS011;63734;45.218;36.708;2023-04-15T11:40:34;6.80;;;4.38;;
75152;SDS011;63734;45.218;36.708;2023-04-15T11:45:52;6.32;;;4.38;;
75152;SDS011;63734;45.218;36.708;2023-04-15T11:48:27;8.30;;;3.80;;
75152;SDS011;63734;45.218;36.708;2023-04-15T11:51:06;13.10;;;5.32;;
75152;SDS011;63734;45.218;36.708;2023-04-15T11:53:36;4.75;;;4.00;;
75152;SDS011;63734;45.218;36.708;2023-04-15T11:56:03;7.90;;;4.00;;
75152;SDS011;63734;45.218;36.708;2023-04-15T11:58:30;7.63;;;3.63;;
75152;SDS011;63734;45.218;36.708;2023-04-15T12:00:59;8.10;;;4.47;;
75152;SDS011;63734;45.218;36.708;2023-04-15T12:08:46;8.68;;;3.90;;
75152;SDS011;63734;45.218;36.708;2023-04-15T12:13:54;9.00;;;4.20;;
75152;SDS011;63734;45.218;36.708;2023-04-15T12:16:28;5.18;;;3.97;;
75152;SDS011;63734;45.218;36.708;2023-04-15T12:18:55;5.35;;;3.72;;
75152;SDS011;63734;45.218;36.708;2023-04-15T12:21:27;6.00;;;3.80;;
75152;SDS011;63734;45.218;36.708;2023-04-15T12:24:00;4.72;;;3.28;;
75152;SDS011;63734;45.218;36.708;2023-04-15T12:26:28;9.52;;;4.10;;
75152;SDS011;63734;45.218;36.708;2023-04-15T12:29:02;4.30;;;3.10;;
75152;SDS011;63734;45.218;36.708;2023-04-15T12:31:35;7.03;;;3.65;;
75152;SDS011;63734;45.218;36.708;2023-04-15T12:34:03;6.50;;;3.53;;
75152;SDS011;63734;45.218;36.708;2023-04-15T12:36:32;6.28;;;3.50;;
75152;SDS011;63734;45.218;36.708;2023-04-15T12:39:02;6.30;;;3.83;;
75152;SDS011;63734;45.218;36.708;2023-04-15T12:41:31;20.75;;;9.27;;
75152;SDS011;63734;45.218;36.708;2023-04-15T12:43:57;18.42;;;8.60;;
75152;SDS011;63734;45.218;36.708;2023-04-15T12:46:24;11.05;;;5.97;;
75152;SDS011;63734;45.218;36.708;2023-04-15T12:48:50;7.05;;;4.95;;
75152;SDS011;63734;45.218;36.708;2023-04-15T12:51:17;7.80;;;4.53;;
75152;SDS011;63734;45.218;36.708;2023-04-15T12:53:45;8.00;;;4.13;;
75152;SDS011;63734;45.218;36.708;2023-04-15T12:56:12;8.48;;;5.63;;
75152;SDS011;63734;45.218;36.708;2023-04-15T12:58:38;8.82;;;5.20;;
75152;SDS011;63734;45.218;36.708;2023-04-15T13:01:04;8.32;;;4.85;;
75152;SDS011;63734;45.218;36.708;2023-04-15T13:03:31;5.40;;;3.63;;
75152;SDS011;63734;45.218;36.708;2023-04-15T13:05:57;8.82;;;4.60;;
75152;SDS011;63734;45.218;36.708;2023-04-15T13:08:23;9.45;;;5.57;;
75152;SDS011;63734;45.218;36.708;2023-04-15T13:10:49;10.10;;;5.00;;
75152;SDS011;63734;45.218;36.708;2023-04-15T13:13:15;11.07;;;6.78;;
75152;SDS011;63734;45.218;36.708;2023-04-15T13:15:41;11.20;;;5.20;;
75152;SDS011;63734;45.218;36.708;2023-04-15T13:18:09;12.45;;;6.03;;
75152;SDS011;63734;45.218;36.708;2023-04-15T13:20:35;8.80;;;4.80;;
75152;SDS011;63734;45.218;36.708;2023-04-15T13:23:01;8.70;;;5.25;;
75152;SDS011;63734;45.218;36.708;2023-04-15T13:25:27;7.90;;;4.85;;
75152;SDS011;63734;45.218;36.708;2023-04-15T13:27:53;9.75;;;5.38;;
75152;SDS011;63734;45.218;36.708;2023-04-15T13:30:19;4.68;;;3.67;;
75152;SDS011;63734;45.218;36.708;2023-04-15T13:32:45;5.22;;;2.90;;
75152;SDS011;63734;45.218;36.708;2023-04-15T13:35:11;4.57;;;3.10;;
75152;SDS011;63734;45.218;36.708;2023-04-15T13:37:37;8.52;;;3.47;;
75152;SDS011;63734;45.218;36.708;2023-04-15T13:40:03;7.38;;;4.10;;
75152;SDS011;63734;45.218;36.708;2023-04-15T13:42:31;6.00;;;3.85;;
75152;SDS011;63734;45.218;36.708;2023-04-15T13:44:57;4.97;;;3.67;;
75152;SDS011;63734;45.218;36.708;2023-04-15T13:47:25;11.57;;;3.92;;
75152;SDS011;63734;45.218;36.708;2023-04-15T13:49:51;5.68;;;3.88;;
75152;SDS011;63734;45.218;36.708;2023-04-15T13:52:18;7.00;;;3.63;;
75152;SDS011;63734;45.218;36.708;2023-04-15T13:54:44;5.75;;;3.38;;
75152;SDS011;63734;45.218;36.708;2023-04-15T13:57:11;4.28;;;3.00;;
75152;SDS011;63734;45.218;36.708;2023-04-15T13:59:37;7.03;;;4.10;;
75152;SDS011;63734;45.218;36.708;2023-04-15T14:02:03;6.40;;;3.92;;
75152;SDS011;63734;45.218;36.708;2023-04-15T14:04:32;5.85;;;3.55;;
75152;SDS011;63734;45.218;36.708;2023-04-15T14:07:05;11.32;;;3.83;;
75152;SDS011;63734;45.218;36.708;2023-04-15T14:09:31;8.07;;;4.65;;
75152;SDS011;63734;45.218;36.708;2023-04-15T14:11:57;5.40;;;3.58;;
75152;SDS011;63734;45.218;36.708;2023-04-15T14:14:24;7.05;;;3.58;;
75152;SDS011;63734;45.218;36.708;2023-04-15T14:16:50;7.30;;;4.15;;
75152;SDS011;63734;45.218;36.708;2023-04-15T14:19:16;6.53;;;3.97;;
75152;SDS011;63734;45.218;36.708;2023-04-15T14:21:42;7.70;;;3.83;;
75152;SDS011;63734;45.218;36.708;2023-04-15T14:24:08;9.48;;;4.32;;
75152;SDS011;63734;45.218;36.708;2023-04-15T14:26:34;8.93;;;4.55;;
75152;SDS011;63734;45.218;36.708;2023-04-15T14:29:00;7.07;;;4.63;;
75152;SDS011;63734;45.218;36.708;2023-04-15T14:31:26;6.60;;;3.80;;
75152;SDS011;63734;45.218;36.708;2023-04-15T14:33:52;7.45;;;4.88;;
75152;SDS011;63734;45.218;36.708;2023-04-15T14:36:18;7.85;;;4.25;;
75152;SDS011;63734;45.218;36.708;2023-04-15T14:38:44;6.00;;;3.53;;
75152;SDS011;63734;45.218;36.708;2023-04-15T14:41:10;7.65;;;3.95;;
75152;SDS011;63734;45.218;36.708;2023-04-15T14:43:36;9.45;;;4.63;;
75152;SDS011;63734;45.218;36.708;2023-04-15T14:46:02;9.48;;;5.05;;
75152;SDS011;63734;45.218;36.708;2023-04-15T14:48:29;13.05;;;4.57;;
75152;SDS011;63734;45.218;36.708;2023-04-15T14:50:56;6.45;;;4.20;;
75152;SDS011;63734;45.218;36.708;2023-04-15T14:53:23;8.13;;;4.75;;
75152;SDS011;63734;45.218;36.708;2023-04-15T14:55:49;11.18;;;4.72;;